TimeCST,TemperatureF,Dew PointF,Humidity,Sea Level PressureIn,VisibilityMPH,Wind Direction,Wind SpeedMPH,Gust SpeedMPH,PrecipitationIn,Events,Conditions,WindDirDegrees,DateUTC
12:56 AM,54.0,44.1,69,30.18,10.0,North,3.5,-,N/A,,Clear,10,2013-11-11 06:56:00
1:56 AM,53.1,43.0,69,30.17,10.0,North,3.5,-,N/A,,Clear,10,2013-11-11 07:56:00
2:56 AM,52.0,43.0,71,30.17,10.0,North,4.6,-,N/A,,Clear,360,2013-11-11 08:56:00
3:56 AM,51.1,43.0,74,30.16,10.0,NNE,3.5,-,N/A,,Partly Cloudy,20,2013-11-11 09:56:00
4:56 AM,45.0,41.0,86,30.18,10.0,Calm,Calm,-,N/A,,Clear,0,2013-11-11 10:56:00
5:56 AM,44.1,41.0,89,30.18,10.0,NNE,3.5,-,N/A,,Clear,30,2013-11-11 11:56:00
6:56 AM,52.0,43.0,71,30.19,9.0,NNE,4.6,-,N/A,,Clear,30,2013-11-11 12:56:00
7:56 AM,57.9,45.0,62,30.21,10.0,ENE,6.9,-,N/A,,Clear,60,2013-11-11 13:56:00
8:56 AM,64.0,46.0,52,30.21,10.0,East,4.6,-,N/A,,Clear,90,2013-11-11 14:56:00
9:56 AM,69.1,43.0,39,30.20,10.0,East,6.9,-,N/A,,Clear,100,2013-11-11 15:56:00
10:56 AM,72.0,42.1,34,30.18,10.0,Calm,Calm,-,N/A,,Clear,0,2013-11-11 16:56:00
11:56 AM,73.9,41.0,30,30.15,10.0,SSE,3.5,-,N/A,,Clear,160,2013-11-11 17:56:00
12:56 PM,75.9,42.1,30,30.12,10.0,Variable,3.5,-,N/A,,Clear,0,2013-11-11 18:56:00
1:56 PM,77.0,44.1,31,30.11,10.0,ENE,5.8,-,N/A,,Clear,60,2013-11-11 19:56:00
2:56 PM,77.0,45.0,32,30.11,10.0,Calm,Calm,-,N/A,,Clear,0,2013-11-11 20:56:00
3:56 PM,75.0,48.0,38,30.10,10.0,Calm,Calm,-,N/A,,Clear,0,2013-11-11 21:56:00
4:56 PM,64.0,50.0,60,30.11,9.0,Calm,Calm,-,N/A,,Clear,0,2013-11-11 22:56:00
5:56 PM,57.0,51.1,81,30.12,5.0,Calm,Calm,-,N/A,,Haze,0,2013-11-11 23:56:00
6:56 PM,55.9,48.9,77,30.13,10.0,Calm,Calm,-,N/A,,Clear,0,2013-11-12 00:56:00
7:56 PM,53.1,48.9,86,30.14,10.0,Calm,Calm,-,N/A,,Clear,0,2013-11-12 01:56:00
8:56 PM,52.0,48.0,86,30.14,10.0,Calm,Calm,-,N/A,,Clear,0,2013-11-12 02:56:00
9:56 PM,50.0,46.0,86,30.15,10.0,Calm,Calm,-,N/A,,Clear,0,2013-11-12 03:56:00
10:56 PM,51.1,46.9,86,30.14,10.0,North,4.6,-,N/A,,Clear,360,2013-11-12 04:56:00
11:56 PM,50.0,46.9,89,30.13,10.0,North,3.5,-,N/A,,Clear,350,2013-11-12 05:56:00